sensor_id;sensor_type;location;lat;lon;timestamp;temperature;humidity
15713;DHT22;7957;51.608;6.916;2023-06-22T00:01:35;23.30;1.00
15713;DHT22;7957;51.608;6.916;2023-06-22T00:04:05;23.30;1.00
15713;DHT22;7957;51.608;6.916;2023-06-22T00:06:34;23.20;1.00
15713;DHT22;7957;51.608;6.916;2023-06-22T00:09:01;23.20;1.00
15713;DHT22;7957;51.608;6.916;2023-06-22T00:11:29;23.20;1.00
15713;DHT22;7957;51.608;6.916;2023-06-22T00:13:58;23.20;1.00
15713;DHT22;7957;51.608;6.916;2023-06-22T00:16:27;23.20;1.00
15713;DHT22;7957;51.608;6.916;2023-06-22T00:18:54;23.20;1.00
15713;DHT22;7957;51.608;6.916;2023-06-22T00:21:21;23.20;1.00
15713;DHT22;7957;51.608;6.916;2023-06-22T00:23:48;23.10;1.00
15713;DHT22;7957;51.608;6.916;2023-06-22T00:26:15;23.10;1.00
15713;DHT22;7957;51.608;6.916;2023-06-22T00:28:42;23.10;1.00
15713;DHT22;7957;51.608;6.916;2023-06-22T00:31:09;23.10;1.00
15713;DHT22;7957;51.608;6.916;2023-06-22T00:33:38;23.10;1.00
15713;DHT22;7957;51.608;6.916;2023-06-22T00:36:05;23.10;1.00
15713;DHT22;7957;51.608;6.916;2023-06-22T00:38:33;23.10;1.00
15713;DHT22;7957;51.608;6.916;2023-06-22T00:41:00;23.10;1.00
15713;DHT22;7957;51.608;6.916;2023-06-22T00:43:28;23.10;1.00
15713;DHT22;7957;51.608;6.916;2023-06-22T00:45:55;23.00;1.00
15713;DHT22;7957;51.608;6.916;2023-06-22T00:48:23;23.00;1.00
15713;DHT22;7957;51.608;6.916;2023-06-22T00:50:51;23.00;1.00
15713;DHT22;7957;51.608;6.916;2023-06-22T00:53:19;23.00;1.00
15713;DHT22;7957;51.608;6.916;2023-06-22T00:55:46;23.00;1.00
15713;DHT22;7957;51.608;6.916;2023-06-22T00:58:17;23.00;1.00
15713;DHT22;7957;51.608;6.916;2023-06-22T01:00:47;23.00;1.00
15713;DHT22;7957;51.608;6.916;2023-06-22T01:03:17;23.00;1.00
15713;DHT22;7957;51.608;6.916;2023-06-22T01:05:46;23.00;1.00
15713;DHT22;7957;51.608;6.916;2023-06-22T01:08:23;23.00;1.00
15713;DHT22;7957;51.608;6.916;2023-06-22T01:10:57;22.90;1.00
15713;DHT22;7957;51.608;6.916;2023-06-22T01:13:29;22.90;1.00
15713;DHT22;7957;51.608;6.916;2023-06-22T01:16:03;22.80;1.00
15713;DHT22;7957;51.608;6.916;2023-06-22T01:18:31;22.80;1.00
15713;DHT22;7957;51.608;6.916;2023-06-22T01:21:02;22.80;1.00
15713;DHT22;7957;51.608;6.916;2023-06-22T01:23:47;22.80;1.00
15713;DHT22;7957;51.608;6.916;2023-06-22T01:26:19;22.80;1.00
15713;DHT22;7957;51.608;6.916;2023-06-22T01:28:50;22.80;1.00
15713;DHT22;7957;51.608;6.916;2023-06-22T01:31:20;22.70;1.00
15713;DHT22;7957;51.608;6.916;2023-06-22T01:33:52;22.70;1.00
15713;DHT22;7957;51.608;6.916;2023-06-22T01:36:21;22.70;1.00
15713;DHT22;7957;51.608;6.916;2023-06-22T01:38:49;22.70;1.00
15713;DHT22;7957;51.608;6.916;2023-06-22T01:41:17;22.70;1.00
15713;DHT22;7957;51.608;6.916;2023-06-22T01:43:45;22.70;1.00
15713;DHT22;7957;51.608;6.916;2023-06-22T01:46:14;22.60;1.00
15713;DHT22;7957;51.608;6.916;2023-06-22T01:48:44;22.60;1.00
15713;DHT22;7957;51.608;6.916;2023-06-22T01:51:12;22.60;1.00
15713;DHT22;7957;51.608;6.916;2023-06-22T01:53:39;22.60;1.00
15713;DHT22;7957;51.608;6.916;2023-06-22T01:56:06;22.50;1.00
15713;DHT22;7957;51.608;6.916;2023-06-22T01:58:33;22.50;1.00
15713;DHT22;7957;51.608;6.916;2023-06-22T02:01:09;22.50;1.00
15713;DHT22;7957;51.608;6.916;2023-06-22T02:03:42;22.50;1.00
15713;DHT22;7957;51.608;6.916;2023-06-22T02:06:19;22.50;1.00
15713;DHT22;7957;51.608;6.916;2023-06-22T02:08:53;22.50;1.00
15713;DHT22;7957;51.608;6.916;2023-06-22T02:11:22;22.50;1.00
15713;DHT22;7957;51.608;6.916;2023-06-22T02:13:49;22.40;1.00
15713;DHT22;7957;51.608;6.916;2023-06-22T02:16:17;22.40;1.00
15713;DHT22;7957;51.608;6.916;2023-06-22T02:18:47;22.40;2.90
15713;DHT22;7957;51.608;6.916;2023-06-22T02:21:16;22.40;11.70
15713;DHT22;7957;51.608;6.916;2023-06-22T02:23:43;22.40;18.80
15713;DHT22;7957;51.608;6.916;2023-06-22T02:26:10;22.40;29.60
15713;DHT22;7957;51.608;6.916;2023-06-22T02:28:37;22.40;40.20
15713;DHT22;7957;51.608;6.916;2023-06-22T02:31:04;22.30;67.10
15713;DHT22;7957;51.608;6.916;2023-06-22T02:33:31;22.30;63.70
15713;DHT22;7957;51.608;6.916;2023-06-22T02:35:59;22.30;74.60
15713;DHT22;7957;51.608;6.916;2023-06-22T02:38:30;22.30;87.20
15713;DHT22;7957;51.608;6.916;2023-06-22T02:41:00;22.30;95.50
15713;DHT22;7957;51.608;6.916;2023-06-22T02:43:27;22.30;99.90
15713;DHT22;7957;51.608;6.916;2023-06-22T02:45:54;22.30;99.90
15713;DHT22;7957;51.608;6.916;2023-06-22T02:48:21;22.30;99.90
15713;DHT22;7957;51.608;6.916;2023-06-22T02:50:48;22.20;99.90
15713;DHT22;7957;51.608;6.916;2023-06-22T02:53:16;22.20;99.90
15713;DHT22;7957;51.608;6.916;2023-06-22T02:55:43;22.20;99.90
15713;DHT22;7957;51.608;6.916;2023-06-22T02:58:10;22.20;99.90
15713;DHT22;7957;51.608;6.916;2023-06-22T03:00:37;22.20;99.90
15713;DHT22;7957;51.608;6.916;2023-06-22T03:03:04;22.20;99.90
15713;DHT22;7957;51.608;6.916;2023-06-22T03:05:31;22.20;99.90
15713;DHT22;7957;51.608;6.916;2023-06-22T03:08:00;22.20;99.90
15713;DHT22;7957;51.608;6.916;2023-06-22T03:10:29;22.10;99.90
15713;DHT22;7957;51.608;6.916;2023-06-22T03:12:55;22.10;99.90
15713;DHT22;7957;51.608;6.916;2023-06-22T03:15:22;22.10;99.90
15713;DHT22;7957;51.608;6.916;2023-06-22T03:17:50;22.10;99.90
15713;DHT22;7957;51.608;6.916;2023-06-22T03:20:17;22.00;99.90
15713;DHT22;7957;51.608;6.916;2023-06-22T03:22:44;22.00;99.90
15713;DHT22;7957;51.608;6.916;2023-06-22T03:25:11;22.00;99.90
15713;DHT22;7957;51.608;6.916;2023-06-22T03:27:41;22.00;99.90
15713;DHT22;7957;51.608;6.916;2023-06-22T03:30:11;22.00;99.90
15713;DHT22;7957;51.608;6.916;2023-06-22T03:32:38;22.00;99.90
15713;DHT22;7957;51.608;6.916;2023-06-22T03:35:05;22.00;99.90
15713;DHT22;7957;51.608;6.916;2023-06-22T03:37:33;22.00;99.90
15713;DHT22;7957;51.608;6.916;2023-06-22T03:39:59;21.90;99.90
15713;DHT22;7957;51.608;6.916;2023-06-22T03:42:27;21.90;99.90
15713;DHT22;7957;51.608;6.916;2023-06-22T03:44:55;21.90;99.90
15713;DHT22;7957;51.608;6.916;2023-06-22T03:47:22;21.90;99.90
15713;DHT22;7957;51.608;6.916;2023-06-22T03:49:49;21.90;99.90
15713;DHT22;7957;51.608;6.916;2023-06-22T03:52:20;21.90;99.90
15713;DHT22;7957;51.608;6.916;2023-06-22T03:54:47;21.80;99.90
15713;DHT22;7957;51.608;6.916;2023-06-22T03:57:14;21.80;99.90
15713;DHT22;7957;51.608;6.916;2023-06-22T03:59:41;21.80;99.90
15713;DHT22;7957;51.608;6.916;2023-06-22T04:02:09;21.80;99.90
15713;DHT22;7957;51.608;6.916;2023-06-22T04:04:36;21.80;99.90
15713;DHT22;7957;51.608;6.916;2023-06-22T04:07:04;21.70;99.90
15713;DHT22;7957;51.608;6.916;2023-06-22T04:09:31;21.70;99.90
15713;DHT22;7957;51.608;6.916;2023-06-22T04:11:58;21.70;99.90
15713;DHT22;7957;51.608;6.916;2023-06-22T04:14:26;21.70;99.90
15713;DHT22;7957;51.608;6.916;2023-06-22T04:16:53;21.70;99.90
15713;DHT22;7957;51.608;6.916;2023-06-22T04:19:21;21.70;1.00
15713;DHT22;7957;51.608;6.916;2023-06-22T04:21:48;21.70;1.00
15713;DHT22;7957;51.608;6.916;2023-06-22T04:24:15;21.70;1.00
15713;DHT22;7957;51.608;6.916;2023-06-22T04:26:42;21.60;1.00
15713;DHT22;7957;51.608;6.916;2023-06-22T04:29:11;21.60;1.00
15713;DHT22;7957;51.608;6.916;2023-06-22T04:31:38;21.60;1.00
15713;DHT22;7957;51.608;6.916;2023-06-22T04:34:06;21.70;1.00
15713;DHT22;7957;51.608;6.916;2023-06-22T04:36:38;21.70;1.00
15713;DHT22;7957;51.608;6.916;2023-06-22T04:39:06;21.70;1.00
15713;DHT22;7957;51.608;6.916;2023-06-22T04:41:35;21.70;1.00
15713;DHT22;7957;51.608;6.916;2023-06-22T04:44:09;21.70;1.00
15713;DHT22;7957;51.608;6.916;2023-06-22T04:46:37;21.70;1.00
15713;DHT22;7957;51.608;6.916;2023-06-22T04:49:05;21.70;1.00
15713;DHT22;7957;51.608;6.916;2023-06-22T04:51:39;21.70;1.00
15713;DHT22;7957;51.608;6.916;2023-06-22T04:54:07;21.80;1.00
15713;DHT22;7957;51.608;6.916;2023-06-22T04:56:34;21.80;1.00
15713;DHT22;7957;51.608;6.916;2023-06-22T04:59:02;21.80;1.00
15713;DHT22;7957;51.608;6.916;2023-06-22T05:01:29;21.80;1.00
15713;DHT22;7957;51.608;6.916;2023-06-22T05:03:57;21.80;1.00
15713;DHT22;7957;51.608;6.916;2023-06-22T05:06:26;21.80;1.00
15713;DHT22;7957;51.608;6.916;2023-06-22T05:08:56;21.80;1.00
15713;DHT22;7957;51.608;6.916;2023-06-22T05:11:24;21.90;1.00
15713;DHT22;7957;51.608;6.916;2023-06-22T05:13:51;21.90;1.00
15713;DHT22;7957;51.608;6.916;2023-06-22T05:16:18;21.90;1.00
15713;DHT22;7957;51.608;6.916;2023-06-22T05:18:50;21.90;1.00
15713;DHT22;7957;51.608;6.916;2023-06-22T05:21:17;21.90;1.00
15713;DHT22;7957;51.608;6.916;2023-06-22T05:23:44;21.90;1.00
15713;DHT22;7957;51.608;6.916;2023-06-22T05:26:12;21.90;1.00
15713;DHT22;7957;51.608;6.916;2023-06-22T05:28:40;21.90;1.00
15713;DHT22;7957;51.608;6.916;2023-06-22T05:31:06;21.90;1.00
15713;DHT22;7957;51.608;6.916;2023-06-22T05:33:33;21.90;1.00
15713;DHT22;7957;51.608;6.916;2023-06-22T05:36:00;21.90;1.00
15713;DHT22;7957;51.608;6.916;2023-06-22T05:38:27;21.90;1.00
15713;DHT22;7957;51.608;6.916;2023-06-22T05:40:54;22.00;1.00
15713;DHT22;7957;51.608;6.916;2023-06-22T05:43:23;21.90;1.00
15713;DHT22;7957;51.608;6.916;2023-06-22T05:45:50;21.90;1.00
15713;DHT22;7957;51.608;6.916;2023-06-22T05:48:17;21.90;1.00
15713;DHT22;7957;51.608;6.916;2023-06-22T05:50:44;21.90;1.00
15713;DHT22;7957;51.608;6.916;2023-06-22T05:53:11;21.90;1.00
15713;DHT22;7957;51.608;6.916;2023-06-22T05:55:38;22.00;1.00
15713;DHT22;7957;51.608;6.916;2023-06-22T05:58:05;22.00;1.00
15713;DHT22;7957;51.608;6.916;2023-06-22T06:00:34;22.00;1.00
15713;DHT22;7957;51.608;6.916;2023-06-22T06:03:02;22.00;1.00
15713;DHT22;7957;51.608;6.916;2023-06-22T06:05:29;22.00;1.00
15713;DHT22;7957;51.608;6.916;2023-06-22T06:07:56;22.00;1.00
15713;DHT22;7957;51.608;6.916;2023-06-22T06:10:23;22.00;1.00
15713;DHT22;7957;51.608;6.916;2023-06-22T06:12:50;22.00;1.00
15713;DHT22;7957;51.608;6.916;2023-06-22T06:15:17;22.00;1.00
15713;DHT22;7957;51.608;6.916;2023-06-22T06:17:49;22.00;1.00
15713;DHT22;7957;51.608;6.916;2023-06-22T06:20:19;22.00;1.00
15713;DHT22;7957;51.608;6.916;2023-06-22T06:22:46;22.00;1.00
15713;DHT22;7957;51.608;6.916;2023-06-22T06:25:14;22.00;1.00
15713;DHT22;7957;51.608;6.916;2023-06-22T06:27:42;22.00;1.00
15713;DHT22;7957;51.608;6.916;2023-06-22T06:30:10;22.00;1.00
15713;DHT22;7957;51.608;6.916;2023-06-22T06:32:38;22.00;1.00
15713;DHT22;7957;51.608;6.916;2023-06-22T06:35:08;22.00;1.00
15713;DHT22;7957;51.608;6.916;2023-06-22T06:37:37;22.00;1.00
15713;DHT22;7957;51.608;6.916;2023-06-22T06:40:05;22.00;1.00
15713;DHT22;7957;51.608;6.916;2023-06-22T06:42:34;22.00;1.00
15713;DHT22;7957;51.608;6.916;2023-06-22T06:45:03;22.00;1.00
15713;DHT22;7957;51.608;6.916;2023-06-22T06:47:30;22.00;1.00
15713;DHT22;7957;51.608;6.916;2023-06-22T06:49:57;21.90;2.20
15713;DHT22;7957;51.608;6.916;2023-06-22T06:52:27;22.00;19.30
15713;DHT22;7957;51.608;6.916;2023-06-22T06:54:55;22.00;31.30
15713;DHT22;7957;51.608;6.916;2023-06-22T06:57:24;21.90;37.80
15713;DHT22;7957;51.608;6.916;2023-06-22T06:59:54;21.90;58.90
15713;DHT22;7957;51.608;6.916;2023-06-22T07:02:22;21.90;83.60
15713;DHT22;7957;51.608;6.916;2023-06-22T07:04:50;21.90;97.10
15713;DHT22;7957;51.608;6.916;2023-06-22T07:07:16;21.90;99.90
15713;DHT22;7957;51.608;6.916;2023-06-22T07:09:45;21.90;99.90
15713;DHT22;7957;51.608;6.916;2023-06-22T07:12:12;21.90;99.90
15713;DHT22;7957;51.608;6.916;2023-06-22T07:14:39;21.90;99.90
15713;DHT22;7957;51.608;6.916;2023-06-22T07:17:06;21.90;99.90
15713;DHT22;7957;51.608;6.916;2023-06-22T07:19:33;21.90;99.90
15713;DHT22;7957;51.608;6.916;2023-06-22T07:22:00;21.90;99.90
15713;DHT22;7957;51.608;6.916;2023-06-22T07:24:27;21.90;99.90
15713;DHT22;7957;51.608;6.916;2023-06-22T07:26:55;21.90;99.90
15713;DHT22;7957;51.608;6.916;2023-06-22T07:29:23;21.90;99.90
15713;DHT22;7957;51.608;6.916;2023-06-22T07:31:50;21.90;99.90
15713;DHT22;7957;51.608;6.916;2023-06-22T07:34:17;21.90;99.90
15713;DHT22;7957;51.608;6.916;2023-06-22T07:36:44;21.90;99.90
15713;DHT22;7957;51.608;6.916;2023-06-22T07:39:11;21.90;99.90
15713;DHT22;7957;51.608;6.916;2023-06-22T07:41:39;21.90;99.90
15713;DHT22;7957;51.608;6.916;2023-06-22T07:44:07;21.90;99.90
15713;DHT22;7957;51.608;6.916;2023-06-22T07:46:34;21.90;99.90
15713;DHT22;7957;51.608;6.916;2023-06-22T07:49:02;21.80;99.90
15713;DHT22;7957;51.608;6.916;2023-06-22T07:51:29;21.90;99.90
15713;DHT22;7957;51.608;6.916;2023-06-22T07:53:56;21.80;99.90
15713;DHT22;7957;51.608;6.916;2023-06-22T07:56:23;21.80;99.90
15713;DHT22;7957;51.608;6.916;2023-06-22T07:58:49;21.80;99.90
15713;DHT22;7957;51.608;6.916;2023-06-22T08:01:18;21.80;99.90
15713;DHT22;7957;51.608;6.916;2023-06-22T08:03:47;21.80;99.90
15713;DHT22;7957;51.608;6.916;2023-06-22T08:06:14;21.90;99.90
15713;DHT22;7957;51.608;6.916;2023-06-22T08:08:43;21.90;99.90
15713;DHT22;7957;51.608;6.916;2023-06-22T08:11:13;21.90;99.90
15713;DHT22;7957;51.608;6.916;2023-06-22T08:13:40;21.80;99.90
15713;DHT22;7957;51.608;6.916;2023-06-22T08:16:07;21.90;99.90
15713;DHT22;7957;51.608;6.916;2023-06-22T08:18:35;21.90;99.90
15713;DHT22;7957;51.608;6.916;2023-06-22T08:21:02;21.90;99.90
15713;DHT22;7957;51.608;6.916;2023-06-22T08:23:29;21.90;1.00
15713;DHT22;7957;51.608;6.916;2023-06-22T08:25:56;21.90;1.00
15713;DHT22;7957;51.608;6.916;2023-06-22T08:28:23;21.90;1.00
15713;DHT22;7957;51.608;6.916;2023-06-22T08:30:50;21.90;1.00
15713;DHT22;7957;51.608;6.916;2023-06-22T08:33:17;22.00;1.00
15713;DHT22;7957;51.608;6.916;2023-06-22T08:35:46;22.00;1.00
15713;DHT22;7957;51.608;6.916;2023-06-22T08:38:14;22.00;1.00
15713;DHT22;7957;51.608;6.916;2023-06-22T08:40:41;22.00;1.00
15713;DHT22;7957;51.608;6.916;2023-06-22T08:43:08;22.10;1.00
15713;DHT22;7957;51.608;6.916;2023-06-22T08:45:34;22.10;1.00
15713;DHT22;7957;51.608;6.916;2023-06-22T08:48:02;22.20;1.00
15713;DHT22;7957;51.608;6.916;2023-06-22T08:50:29;22.20;1.00
15713;DHT22;7957;51.608;6.916;2023-06-22T08:52:58;22.30;1.00
15713;DHT22;7957;51.608;6.916;2023-06-22T08:55:25;22.40;1.00
15713;DHT22;7957;51.608;6.916;2023-06-22T08:57:52;22.40;1.00
15713;DHT22;7957;51.608;6.916;2023-06-22T09:00:20;22.50;1.00
15713;DHT22;7957;51.608;6.916;2023-06-22T09:02:48;22.50;1.00
15713;DHT22;7957;51.608;6.916;2023-06-22T09:05:15;22.50;1.00
15713;DHT22;7957;51.608;6.916;2023-06-22T09:07:42;22.50;1.00
15713;DHT22;7957;51.608;6.916;2023-06-22T09:10:11;22.60;1.00
15713;DHT22;7957;51.608;6.916;2023-06-22T09:12:39;22.60;35.90
15713;DHT22;7957;51.608;6.916;2023-06-22T09:15:07;22.60;50.70
15713;DHT22;7957;51.608;6.916;2023-06-22T09:17:34;22.60;73.60
15713;DHT22;7957;51.608;6.916;2023-06-22T09:20:02;22.70;99.80
15713;DHT22;7957;51.608;6.916;2023-06-22T09:22:31;22.70;99.90
15713;DHT22;7957;51.608;6.916;2023-06-22T09:25:00;22.70;99.90
15713;DHT22;7957;51.608;6.916;2023-06-22T09:27:30;22.70;99.90
15713;DHT22;7957;51.608;6.916;2023-06-22T09:29:56;22.80;99.90
15713;DHT22;7957;51.608;6.916;2023-06-22T09:32:24;22.80;99.90
15713;DHT22;7957;51.608;6.916;2023-06-22T09:34:51;22.80;99.90
15713;DHT22;7957;51.608;6.916;2023-06-22T09:37:18;22.90;99.90
15713;DHT22;7957;51.608;6.916;2023-06-22T09:39:45;22.90;99.90
15713;DHT22;7957;51.608;6.916;2023-06-22T09:42:12;23.00;99.90
15713;DHT22;7957;51.608;6.916;2023-06-22T09:44:41;23.00;99.90
15713;DHT22;7957;51.608;6.916;2023-06-22T09:47:08;23.10;99.90
15713;DHT22;7957;51.608;6.916;2023-06-22T09:49:35;23.10;99.90
15713;DHT22;7957;51.608;6.916;2023-06-22T09:52:03;23.20;99.90
15713;DHT22;7957;51.608;6.916;2023-06-22T09:54:30;23.20;99.90
15713;DHT22;7957;51.608;6.916;2023-06-22T09:56:57;23.20;99.90
15713;DHT22;7957;51.608;6.916;2023-06-22T09:59:24;23.30;96.20
15713;DHT22;7957;51.608;6.916;2023-06-22T10:01:52;23.30;99.90
15713;DHT22;7957;51.608;6.916;2023-06-22T10:04:19;23.30;99.90
15713;DHT22;7957;51.608;6.916;2023-06-22T10:06:46;23.30;99.90
15713;DHT22;7957;51.608;6.916;2023-06-22T10:09:13;23.30;91.00
15713;DHT22;7957;51.608;6.916;2023-06-22T10:11:40;23.30;80.10
15713;DHT22;7957;51.608;6.916;2023-06-22T10:14:07;23.30;56.50
15713;DHT22;7957;51.608;6.916;2023-06-22T10:16:36;23.30;61.00
15713;DHT22;7957;51.608;6.916;2023-06-22T10:19:05;23.30;58.80
15713;DHT22;7957;51.608;6.916;2023-06-22T10:21:32;23.30;14.10
15713;DHT22;7957;51.608;6.916;2023-06-22T10:24:00;23.20;34.60
15713;DHT22;7957;51.608;6.916;2023-06-22T10:26:33;23.30;57.30
15713;DHT22;7957;51.608;6.916;2023-06-22T10:29:01;23.30;43.60
15713;DHT22;7957;51.608;6.916;2023-06-22T10:31:28;23.50;71.80
15713;DHT22;7957;51.608;6.916;2023-06-22T10:33:55;23.60;90.90
15713;DHT22;7957;51.608;6.916;2023-06-22T10:36:24;23.80;91.00
15713;DHT22;7957;51.608;6.916;2023-06-22T10:38:51;24.10;85.40
15713;DHT22;7957;51.608;6.916;2023-06-22T10:41:18;24.20;44.00
15713;DHT22;7957;51.608;6.916;2023-06-22T10:43:46;24.40;20.60
15713;DHT22;7957;51.608;6.916;2023-06-22T10:46:13;24.60;1.00
15713;DHT22;7957;51.608;6.916;2023-06-22T10:48:40;24.80;1.00
15713;DHT22;7957;51.608;6.916;2023-06-22T10:51:07;24.90;1.00
15713;DHT22;7957;51.608;6.916;2023-06-22T10:53:36;24.90;1.00
15713;DHT22;7957;51.608;6.916;2023-06-22T10:56:03;25.00;1.00
15713;DHT22;7957;51.608;6.916;2023-06-22T10:58:30;25.10;1.00
15713;DHT22;7957;51.608;6.916;2023-06-22T11:00:57;25.10;1.00
15713;DHT22;7957;51.608;6.916;2023-06-22T11:03:24;25.10;1.00
15713;DHT22;7957;51.608;6.916;2023-06-22T11:05:51;25.10;1.00
15713;DHT22;7957;51.608;6.916;2023-06-22T11:08:18;25.20;1.00
15713;DHT22;7957;51.608;6.916;2023-06-22T11:10:51;25.20;1.00
15713;DHT22;7957;51.608;6.916;2023-06-22T11:13:18;25.30;1.00
15713;DHT22;7957;51.608;6.916;2023-06-22T11:15:45;25.30;1.00
15713;DHT22;7957;51.608;6.916;2023-06-22T11:18:12;25.30;1.00
15713;DHT22;7957;51.608;6.916;2023-06-22T11:20:39;25.30;1.00
15713;DHT22;7957;51.608;6.916;2023-06-22T11:23:06;25.20;1.00
15713;DHT22;7957;51.608;6.916;2023-06-22T11:25:37;25.20;99.90
15713;DHT22;7957;51.608;6.916;2023-06-22T11:28:06;25.10;99.90
15713;DHT22;7957;51.608;6.916;2023-06-22T11:30:33;25.00;99.90
15713;DHT22;7957;51.608;6.916;2023-06-22T11:33:00;25.00;99.90
15713;DHT22;7957;51.608;6.916;2023-06-22T11:35:27;24.90;99.90
15713;DHT22;7957;51.608;6.916;2023-06-22T11:37:54;24.90;99.90
15713;DHT22;7957;51.608;6.916;2023-06-22T11:40:21;24.80;99.90
15713;DHT22;7957;51.608;6.916;2023-06-22T11:42:48;24.80;99.90
15713;DHT22;7957;51.608;6.916;2023-06-22T11:45:17;24.70;99.90
15713;DHT22;7957;51.608;6.916;2023-06-22T11:47:44;24.70;99.90
15713;DHT22;7957;51.608;6.916;2023-06-22T11:50:11;24.60;99.90
15713;DHT22;7957;51.608;6.916;2023-06-22T11:52:41;24.50;99.90
15713;DHT22;7957;51.608;6.916;2023-06-22T11:55:11;24.50;99.90
15713;DHT22;7957;51.608;6.916;2023-06-22T11:57:39;24.40;99.90
15713;DHT22;7957;51.608;6.916;2023-06-22T12:00:20;24.30;99.90
15713;DHT22;7957;51.608;6.916;2023-06-22T12:02:49;24.30;99.90
15713;DHT22;7957;51.608;6.916;2023-06-22T12:05:23;24.20;99.90
15713;DHT22;7957;51.608;6.916;2023-06-22T12:11:18;24.00;99.90
15713;DHT22;7957;51.608;6.916;2023-06-22T12:13:55;23.90;99.90
15713;DHT22;7957;51.608;6.916;2023-06-22T12:16:32;23.90;99.90
15713;DHT22;7957;51.608;6.916;2023-06-22T12:19:06;23.80;99.90
15713;DHT22;7957;51.608;6.916;2023-06-22T12:21:39;23.70;99.90
15713;DHT22;7957;51.608;6.916;2023-06-22T12:32:14;23.50;99.90
15713;DHT22;7957;51.608;6.916;2023-06-22T12:34:44;23.40;99.90
15713;DHT22;7957;51.608;6.916;2023-06-22T12:37:14;23.40;1.00
15713;DHT22;7957;51.608;6.916;2023-06-22T12:39:41;23.30;1.00
15713;DHT22;7957;51.608;6.916;2023-06-22T12:42:08;23.30;1.00
15713;DHT22;7957;51.608;6.916;2023-06-22T12:44:37;23.30;1.00
15713;DHT22;7957;51.608;6.916;2023-06-22T12:47:05;23.30;71.60
15713;DHT22;7957;51.608;6.916;2023-06-22T12:49:35;23.30;99.90
15713;DHT22;7957;51.608;6.916;2023-06-22T12:52:02;23.30;95.10
15713;DHT22;7957;51.608;6.916;2023-06-22T12:54:29;23.30;99.90
15713;DHT22;7957;51.608;6.916;2023-06-22T12:56:56;23.40;99.90
15713;DHT22;7957;51.608;6.916;2023-06-22T12:59:23;23.50;99.90
15713;DHT22;7957;51.608;6.916;2023-06-22T13:01:50;23.60;99.90
15713;DHT22;7957;51.608;6.916;2023-06-22T13:04:17;23.60;99.90
15713;DHT22;7957;51.608;6.916;2023-06-22T13:06:45;23.70;1.00
15713;DHT22;7957;51.608;6.916;2023-06-22T13:09:14;23.80;1.00
15713;DHT22;7957;51.608;6.916;2023-06-22T13:11:41;23.90;1.00
15713;DHT22;7957;51.608;6.916;2023-06-22T13:14:08;23.90;1.00
15713;DHT22;7957;51.608;6.916;2023-06-22T13:16:35;24.00;1.00
15713;DHT22;7957;51.608;6.916;2023-06-22T13:19:02;24.00;1.00
15713;DHT22;7957;51.608;6.916;2023-06-22T13:21:34;24.00;1.00
15713;DHT22;7957;51.608;6.916;2023-06-22T13:24:03;24.00;1.00
15713;DHT22;7957;51.608;6.916;2023-06-22T13:26:31;24.00;1.00
15713;DHT22;7957;51.608;6.916;2023-06-22T13:29:16;24.00;1.00
15713;DHT22;7957;51.608;6.916;2023-06-22T13:31:46;23.90;1.00
15713;DHT22;7957;51.608;6.916;2023-06-22T13:34:19;23.90;1.00
15713;DHT22;7957;51.608;6.916;2023-06-22T13:36:48;23.90;1.00
15713;DHT22;7957;51.608;6.916;2023-06-22T13:39:24;23.90;1.00
15713;DHT22;7957;51.608;6.916;2023-06-22T13:41:53;23.80;5.20
15713;DHT22;7957;51.608;6.916;2023-06-22T13:44:20;23.80;99.90
15713;DHT22;7957;51.608;6.916;2023-06-22T13:46:47;23.70;99.90
15713;DHT22;7957;51.608;6.916;2023-06-22T13:49:14;23.70;99.90
15713;DHT22;7957;51.608;6.916;2023-06-22T13:51:41;23.70;99.90
15713;DHT22;7957;51.608;6.916;2023-06-22T13:54:09;23.70;99.90
15713;DHT22;7957;51.608;6.916;2023-06-22T13:56:37;23.60;99.90
15713;DHT22;7957;51.608;6.916;2023-06-22T13:59:04;23.60;99.90
15713;DHT22;7957;51.608;6.916;2023-06-22T14:01:32;23.60;99.90
15713;DHT22;7957;51.608;6.916;2023-06-22T14:03:59;23.50;1.00
15713;DHT22;7957;51.608;6.916;2023-06-22T14:06:27;23.50;1.00
15713;DHT22;7957;51.608;6.916;2023-06-22T14:08:54;23.50;1.00
15713;DHT22;7957;51.608;6.916;2023-06-22T14:11:21;23.50;1.00
15713;DHT22;7957;51.608;6.916;2023-06-22T14:13:50;23.50;1.00
15713;DHT22;7957;51.608;6.916;2023-06-22T14:16:17;23.50;1.00
15713;DHT22;7957;51.608;6.916;2023-06-22T14:18:46;23.50;1.00
15713;DHT22;7957;51.608;6.916;2023-06-22T14:21:12;23.50;1.00
15713;DHT22;7957;51.608;6.916;2023-06-22T14:23:39;23.40;1.00
15713;DHT22;7957;51.608;6.916;2023-06-22T14:26:06;23.50;29.40
15713;DHT22;7957;51.608;6.916;2023-06-22T14:28:33;23.50;99.90
15713;DHT22;7957;51.608;6.916;2023-06-22T14:31:02;23.50;99.90
15713;DHT22;7957;51.608;6.916;2023-06-22T14:33:29;23.50;99.90
15713;DHT22;7957;51.608;6.916;2023-06-22T14:35:58;23.60;99.90
15713;DHT22;7957;51.608;6.916;2023-06-22T14:38:25;23.50;99.90
15713;DHT22;7957;51.608;6.916;2023-06-22T14:40:53;23.60;99.90
15713;DHT22;7957;51.608;6.916;2023-06-22T14:43:20;23.50;99.90
15713;DHT22;7957;51.608;6.916;2023-06-22T14:45:47;23.50;1.00
15713;DHT22;7957;51.608;6.916;2023-06-22T14:48:15;23.50;1.00
15713;DHT22;7957;51.608;6.916;2023-06-22T14:50:42;23.50;1.00
15713;DHT22;7957;51.608;6.916;2023-06-22T14:53:09;23.50;1.00
15713;DHT22;7957;51.608;6.916;2023-06-22T14:55:36;23.40;1.00
15713;DHT22;7957;51.608;6.916;2023-06-22T14:58:03;23.40;1.00
15713;DHT22;7957;51.608;6.916;2023-06-22T15:00:29;23.40;1.00
15713;DHT22;7957;51.608;6.916;2023-06-22T15:02:56;23.40;1.00
15713;DHT22;7957;51.608;6.916;2023-06-22T15:05:26;23.30;1.00
15713;DHT22;7957;51.608;6.916;2023-06-22T15:07:53;23.40;1.00
15713;DHT22;7957;51.608;6.916;2023-06-22T15:10:20;23.30;1.00
15713;DHT22;7957;51.608;6.916;2023-06-22T15:12:46;23.30;1.00
15713;DHT22;7957;51.608;6.916;2023-06-22T15:15:13;23.30;1.00
15713;DHT22;7957;51.608;6.916;2023-06-22T15:17:40;23.30;1.00
15713;DHT22;7957;51.608;6.916;2023-06-22T15:20:08;23.30;1.00
15713;DHT22;7957;51.608;6.916;2023-06-22T15:22:39;23.30;1.00
15713;DHT22;7957;51.608;6.916;2023-06-22T15:25:07;23.30;67.00
15713;DHT22;7957;51.608;6.916;2023-06-22T15:27:34;23.20;60.80
15713;DHT22;7957;51.608;6.916;2023-06-22T15:30:02;23.20;93.00
15713;DHT22;7957;51.608;6.916;2023-06-22T15:32:31;23.20;99.90
15713;DHT22;7957;51.608;6.916;2023-06-22T15:34:58;23.20;99.90
15713;DHT22;7957;51.608;6.916;2023-06-22T15:37:26;23.20;99.90
15713;DHT22;7957;51.608;6.916;2023-06-22T15:40:00;23.20;99.90
15713;DHT22;7957;51.608;6.916;2023-06-22T15:42:30;23.20;99.90
15713;DHT22;7957;51.608;6.916;2023-06-22T15:45:01;23.10;99.90
15713;DHT22;7957;51.608;6.916;2023-06-22T15:47:28;23.10;99.90
15713;DHT22;7957;51.608;6.916;2023-06-22T15:49:57;23.10;99.90
15713;DHT22;7957;51.608;6.916;2023-06-22T15:52:25;23.10;1.00
15713;DHT22;7957;51.608;6.916;2023-06-22T15:54:51;23.10;1.00
15713;DHT22;7957;51.608;6.916;2023-06-22T15:57:21;23.00;1.00
15713;DHT22;7957;51.608;6.916;2023-06-22T15:59:48;23.00;1.00
15713;DHT22;7957;51.608;6.916;2023-06-22T16:02:15;23.00;1.00
15713;DHT22;7957;51.608;6.916;2023-06-22T16:04:42;23.00;1.00
15713;DHT22;7957;51.608;6.916;2023-06-22T16:07:09;23.00;1.00
15713;DHT22;7957;51.608;6.916;2023-06-22T16:09:37;22.90;32.90
15713;DHT22;7957;51.608;6.916;2023-06-22T16:12:05;22.90;57.00